Messwerte Ghazvin

Temperatur

Temperatur
°C
1618799400 7.00 7.00 11
1618803000 8.00 8.00 11
1618806600 9.00 9.00 17
1618810200 10.00 10.00 20
1618813800 11.00 11.00 22
1618817400 12.00 12.00 25
1618821000 13.00 13.00 27
1618824600 14.00 14.00 27
1618828200 15.00 15.00 27
1618831800 16.00 16.00 27
1618835400 17.00 17.00 26
1618839000 18.00 18.00 25
1618842600 19.00 19.00 25
1618846200 20.00 20.00 22
1618849800 21.00 21.00 18
1618853400 22.00 22.00 17
1618857000 23.00 23.00
1618860600 0.00 0.00 16
1618864200 1.00 1.00 14
1618867800 2.00 2.00
1618871400 3.00 3.00 15
1618875000 4.00 4.00 15
1618878600 5.00 5.00
1618882200 6.00 6.00 14

Aktuellste Messwerte

Wettercharakter
Wetter: recht sonnig
Temperatur
15 °C
Feuchtigkeit
50 %
Wind
5 km/hWindrichtung: Nordwest
Luftdruck
1019 hPa
Messzeit: 20. April 2021, 7.30Datenquelle: METAR

Weitere Messstationen in der Nähe

Messstation Temperatur Entfernung
Karadsch 12 °C 91 km
Ramsar 14 °C 94 km
Rasht 15 °C 111 km
Teheran 19 °C 135 km
Teheran-Robat Karim 17 °C 139 km
Noshahr 15 °C 138 km
Zanjan 9 °C 144 km

Wind

Windrichtung Böen Mittelwind
° km/h km/h
1618799400 7.00 6.00 - 7.00 360° 5
1618803000 8.00 7.00 - 8.00 110° 5
1618806600 9.00 8.00 - 9.00 0
1618810200 10.00 9.00 - 10.00 170° 5
1618813800 11.00 10.00 - 11.00 200° 5
1618817400 12.00 11.00 - 12.00 240° 10
1618821000 13.00 12.00 - 13.00 10° 5
1618824600 14.00 13.00 - 14.00 10° 5
1618828200 15.00 14.00 - 15.00 360° 5
1618831800 16.00 15.00 - 16.00 330° 5
1618835400 17.00 16.00 - 17.00 340° 5
1618839000 18.00 17.00 - 18.00 360° 10
1618842600 19.00 18.00 - 19.00 350° 5
1618846200 20.00 19.00 - 20.00 10° 5
1618849800 21.00 20.00 - 21.00 340° 5
1618853400 22.00 21.00 - 22.00 200° 5
1618857000 23.00 22.00 - 23.00
1618860600 0.00 23.00 - 0.00 350° 5
1618864200 1.00 0.00 - 1.00 0
1618867800 2.00 1.00 - 2.00
1618871400 3.00 2.00 - 3.00 320° 5
1618875000 4.00 3.00 - 4.00 340° 5
1618878600 5.00 4.00 - 5.00
1618882200 6.00 5.00 - 6.00 10° 5

Ihre Wetterstation

Fehlt Ihre Wetterstation auf unserem Portal?

Schreiben Sie an network@meteonews.ch

Klima

Wann ist es am wärmsten? Wann regnet es am wenigsten? Unsere Klimadaten geben Auskunft.